Time;durP1;ratioP1;P1;durP2;ratioP2;P2;SDS_P1;SDS_P2;PMS_P1;PMS_P2;Temp;Humidity;BMP_temperature;BMP_pressure;BME280_temperature;BME280_humidity;BME280_pressure;Samples;Min_cycle;Max_cycle;Signal;HPM_P1;HPM_P2
2023/06/25 00:01:28;;;;;;;20.70;11.82;;;;;;;;;;5064111;28;25109;-72
2023/06/25 00:03:54;;;;;;;15.07;10.70;;;;;;;;;;5045602;28;25166;-74
2023/06/25 00:06:21;;;;;;;17.52;12.15;;;;;;;;;;5044876;28;25085;-73
2023/06/25 00:08:48;;;;;;;18.50;11.27;;;;;;;;;;5041818;28;25067;-73
2023/06/25 00:11:14;;;;;;;19.60;11.80;;;;;;;;;;5051443;28;25064;-74
2023/06/25 00:13:40;;;;;;;18.67;11.10;;;;;;;;;;5041398;28;25055;-73
2023/06/25 00:16:07;;;;;;;17.20;11.55;;;;;;;;;;5049677;28;25058;-72
2023/06/25 00:18:33;;;;;;;16.98;11.98;;;;;;;;;;5050157;28;25074;-73
2023/06/25 00:20:59;;;;;;;15.10;11.13;;;;;;;;;;5046720;28;25101;-73
2023/06/25 00:23:25;;;;;;;21.35;13.10;;;;;;;;;;5048964;28;25120;-74
2023/06/25 00:25:51;;;;;;;18.52;11.70;;;;;;;;;;5034823;28;25113;-73
2023/06/25 00:28:17;;;;;;;20.27;11.57;;;;;;;;;;5053242;28;25067;-74
2023/06/25 00:30:43;;;;;;;17.80;11.77;;;;;;;;;;5048039;28;25111;-73
2023/06/25 00:33:09;;;;;;;15.70;11.25;;;;;;;;;;5070337;28;25053;-74
2023/06/25 00:35:43;;;;;;;22.75;12.73;;;;;;;;;;5067232;28;25111;-76
2023/06/25 00:38:10;;;;;;;20.33;12.65;;;;;;;;;;5055700;28;25066;-74
2023/06/25 00:40:36;;;;;;;20.60;13.20;;;;;;;;;;5048005;28;25104;-73
2023/06/25 00:43:04;;;;;;;19.25;13.32;;;;;;;;;;5045420;28;25074;-75
2023/06/25 00:45:30;;;;;;;21.52;12.63;;;;;;;;;;5044704;28;25101;-75
2023/06/25 00:47:58;;;;;;;19.98;12.82;;;;;;;;;;5067093;28;25066;-72
2023/06/25 00:50:25;;;;;;;17.85;11.48;;;;;;;;;;5066118;28;25056;-73
2023/06/25 00:52:51;;;;;;;23.70;13.60;;;;;;;;;;5064148;28;25106;-74
2023/06/25 00:55:18;;;;;;;19.52;12.25;;;;;;;;;;5044845;28;25109;-77
2023/06/25 00:57:44;;;;;;;19.27;12.85;;;;;;;;;;5072897;28;25045;-73
2023/06/25 01:00:14;;;;;;;19.27;12.90;;;;;;;;;;5073714;28;25073;-74
2023/06/25 01:02:49;;;;;;;20.42;12.95;;;;;;;;;;5051923;28;25075;-73
2023/06/25 01:05:26;;;;;;;24.15;13.20;;;;;;;;;;5052349;28;25087;-73
2023/06/25 01:07:53;;;;;;;19.75;12.60;;;;;;;;;;5076521;28;25096;-75
2023/06/25 01:10:20;;;;;;;21.55;12.98;;;;;;;;;;5057547;28;25051;-74
2023/06/25 01:12:45;;;;;;;18.10;12.52;;;;;;;;;;5085195;28;25064;-74
2023/06/25 01:15:12;;;;;;;19.58;12.88;;;;;;;;;;5078636;28;25068;-73
2023/06/25 01:17:41;;;;;;;22.35;12.27;;;;;;;;;;5075544;28;25079;-74
2023/06/25 01:20:11;;;;;;;24.15;12.77;;;;;;;;;;5068670;28;25071;-73
2023/06/25 01:22:38;;;;;;;24.88;14.30;;;;;;;;;;5059367;28;24865;-74
2023/06/25 01:25:05;;;;;;;26.40;14.63;;;;;;;;;;5034110;28;25065;-74
2023/06/25 01:27:33;;;;;;;20.95;12.75;;;;;;;;;;5030916;28;25087;-74
2023/06/25 01:30:00;;;;;;;21.55;12.98;;;;;;;;;;5023624;28;25146;-74
2023/06/25 01:32:26;;;;;;;20.85;12.90;;;;;;;;;;5017415;28;25067;-72
2023/06/25 01:34:52;;;;;;;19.90;12.15;;;;;;;;;;5029715;28;25149;-73
2023/06/25 01:37:19;;;;;;;18.67;12.77;;;;;;;;;;5032509;28;25106;-74
2023/06/25 01:39:48;;;;;;;21.17;13.23;;;;;;;;;;5043230;28;25058;-74
2023/06/25 01:42:14;;;;;;;23.20;13.05;;;;;;;;;;5034116;28;25070;-73
2023/06/25 01:44:40;;;;;;;20.98;12.73;;;;;;;;;;5028102;28;25095;-74
2023/06/25 01:47:07;;;;;;;16.80;11.80;;;;;;;;;;5040791;28;25138;-73
2023/06/25 01:49:33;;;;;;;18.92;11.75;;;;;;;;;;5031409;28;25066;-76
2023/06/25 01:52:00;;;;;;;22.65;12.32;;;;;;;;;;5024048;28;25059;-73
2023/06/25 01:54:26;;;;;;;23.38;12.95;;;;;;;;;;5014044;28;25137;-73
2023/06/25 01:56:52;;;;;;;20.95;13.07;;;;;;;;;;5026174;28;25060;-73
2023/06/25 01:59:18;;;;;;;22.42;12.40;;;;;;;;;;5024488;28;25062;-74
2023/06/25 02:01:45;;;;;;;22.55;15.23;;;;;;;;;;5022296;28;25058;-75
2023/06/25 02:04:11;;;;;;;21.90;12.65;;;;;;;;;;5034896;28;25062;-74
2023/06/25 02:06:37;;;;;;;21.50;12.65;;;;;;;;;;5030511;28;25171;-73
2023/06/25 02:09:03;;;;;;;25.50;14.63;;;;;;;;;;5032767;28;25051;-71
2023/06/25 02:11:29;;;;;;;22.90;14.35;;;;;;;;;;5031161;28;25102;-74
2023/06/25 02:13:55;;;;;;;22.52;13.98;;;;;;;;;;5026732;28;25062;-74
2023/06/25 02:16:21;;;;;;;25.40;14.32;;;;;;;;;;5022304;28;25086;-74
2023/06/25 02:18:47;;;;;;;23.73;15.25;;;;;;;;;;5027373;28;25093;-74
2023/06/25 02:21:13;;;;;;;30.00;15.05;;;;;;;;;;5038881;28;25131;-74
2023/06/25 02:23:39;;;;;;;24.23;16.08;;;;;;;;;;5044800;28;25141;-74
2023/06/25 02:26:05;;;;;;;25.23;14.23;;;;;;;;;;5055277;28;25079;-73
2023/06/25 02:28:31;;;;;;;21.33;14.48;;;;;;;;;;5052785;28;25046;-74
2023/06/25 02:30:57;;;;;;;25.38;15.60;;;;;;;;;;5052757;28;25101;-72
2023/06/25 02:33:23;;;;;;;30.10;15.70;;;;;;;;;;5040891;28;25064;-74
2023/06/25 02:35:49;;;;;;;24.30;15.38;;;;;;;;;;5049790;28;25178;-74
2023/06/25 02:38:15;;;;;;;24.17;14.40;;;;;;;;;;5041206;28;25151;-73
2023/06/25 02:40:41;;;;;;;26.80;15.00;;;;;;;;;;5036326;28;25064;-73
2023/06/25 02:43:07;;;;;;;23.60;14.98;;;;;;;;;;5027447;28;25062;-71
2023/06/25 02:45:33;;;;;;;30.27;16.45;;;;;;;;;;5051655;28;25118;-72
2023/06/25 02:47:59;;;;;;;28.85;15.13;;;;;;;;;;5055452;28;25120;-72
2023/06/25 02:50:25;;;;;;;26.35;15.75;;;;;;;;;;5045439;28;25051;-74
2023/06/25 02:52:51;;;;;;;28.48;17.00;;;;;;;;;;5042417;28;25169;-73
2023/06/25 02:55:17;;;;;;;25.55;15.93;;;;;;;;;;5041216;28;25096;-74
2023/06/25 02:57:43;;;;;;;28.73;15.93;;;;;;;;;;5047293;28;25169;-74
2023/06/25 03:00:09;;;;;;;23.73;15.05;;;;;;;;;;5055605;28;25056;-73
2023/06/25 03:02:35;;;;;;;26.67;15.43;;;;;;;;;;5041584;28;25111;-74
2023/06/25 03:05:01;;;;;;;30.02;16.38;;;;;;;;;;5050327;28;25091;-73
2023/06/25 03:07:27;;;;;;;31.73;17.08;;;;;;;;;;5041574;28;25156;-74
2023/06/25 03:09:53;;;;;;;27.20;15.85;;;;;;;;;;5051887;28;25138;-74
2023/06/25 03:12:19;;;;;;;26.02;15.98;;;;;;;;;;5059048;28;25055;-73
2023/06/25 03:14:45;;;;;;;25.55;15.30;;;;;;;;;;5052831;28;25148;-72
2023/06/25 03:17:11;;;;;;;24.05;14.85;;;;;;;;;;5045805;28;25215;-74
2023/06/25 03:19:37;;;;;;;24.73;14.90;;;;;;;;;;5054920;28;25157;-74
2023/06/25 03:22:03;;;;;;;27.98;14.27;;;;;;;;;;5046719;28;25082;-72
2023/06/25 03:24:29;;;;;;;29.50;16.10;;;;;;;;;;5049217;28;25044;-73
2023/06/25 03:26:55;;;;;;;25.83;14.85;;;;;;;;;;5039468;28;25097;-71
2023/06/25 03:29:21;;;;;;;26.15;14.90;;;;;;;;;;5051974;28;25062;-74
2023/06/25 03:31:47;;;;;;;28.88;14.75;;;;;;;;;;5036827;28;25068;-75
2023/06/25 03:34:13;;;;;;;26.70;14.88;;;;;;;;;;5049039;28;25146;-73
2023/06/25 03:36:39;;;;;;;25.30;14.30;;;;;;;;;;5046682;28;25072;-74
2023/06/25 03:39:05;;;;;;;23.63;14.85;;;;;;;;;;5047594;28;25068;-71
2023/06/25 03:41:31;;;;;;;28.63;14.98;;;;;;;;;;5046858;28;25089;-74
2023/06/25 03:43:57;;;;;;;27.30;16.05;;;;;;;;;;5058046;28;25058;-74
2023/06/25 03:46:23;;;;;;;29.27;15.52;;;;;;;;;;5043400;28;25163;-74
2023/06/25 03:48:49;;;;;;;26.88;15.93;;;;;;;;;;5026680;28;25104;-74
2023/06/25 03:51:15;;;;;;;25.90;15.20;;;;;;;;;;5041612;28;25076;-73
2023/06/25 03:53:41;;;;;;;28.58;15.50;;;;;;;;;;5038636;28;25067;-72
2023/06/25 03:56:07;;;;;;;29.83;16.90;;;;;;;;;;5024758;28;25051;-73
2023/06/25 03:58:36;;;;;;;28.55;16.05;;;;;;;;;;5040996;28;25113;-73
2023/06/25 04:01:03;;;;;;;24.80;15.20;;;;;;;;;;5033022;28;25095;-75
2023/06/25 04:03:29;;;;;;;26.60;15.20;;;;;;;;;;5024864;28;25072;-74
2023/06/25 04:05:55;;;;;;;25.23;15.00;;;;;;;;;;5047161;28;25093;-73
2023/06/25 04:08:21;;;;;;;28.92;16.65;;;;;;;;;;5034394;28;25087;-73
2023/06/25 04:10:47;;;;;;;28.05;15.77;;;;;;;;;;5048867;28;25111;-71
2023/06/25 04:13:13;;;;;;;24.08;14.50;;;;;;;;;;5042216;28;25067;-71
2023/06/25 04:15:39;;;;;;;29.08;17.00;;;;;;;;;;5036548;28;25141;-72
2023/06/25 04:18:05;;;;;;;28.65;15.27;;;;;;;;;;5047806;28;25055;-71
2023/06/25 04:20:31;;;;;;;27.63;15.18;;;;;;;;;;5066475;28;25054;-74
2023/06/25 04:22:57;;;;;;;24.42;14.65;;;;;;;;;;5071838;28;25067;-74
2023/06/25 04:25:23;;;;;;;26.98;16.52;;;;;;;;;;5067864;28;25063;-74
2023/06/25 04:27:49;;;;;;;31.40;16.52;;;;;;;;;;5057601;28;25061;-73
2023/06/25 04:30:15;;;;;;;27.05;16.33;;;;;;;;;;5059467;28;25068;-73
2023/06/25 04:32:41;;;;;;;32.47;17.13;;;;;;;;;;5059040;28;25069;-73
2023/06/25 04:35:08;;;;;;;25.35;15.95;;;;;;;;;;5070724;28;25059;-72
2023/06/25 04:37:34;;;;;;;24.58;15.15;;;;;;;;;;5063164;28;25064;-73
2023/06/25 04:40:00;;;;;;;33.53;17.95;;;;;;;;;;5069031;28;25048;-72
2023/06/25 04:42:26;;;;;;;25.75;16.45;;;;;;;;;;5067123;28;25081;-72
2023/06/25 04:44:52;;;;;;;23.60;16.10;;;;;;;;;;5063083;28;25078;-72
2023/06/25 04:47:18;;;;;;;29.85;16.92;;;;;;;;;;5074332;28;25054;-73
2023/06/25 04:49:44;;;;;;;25.38;16.15;;;;;;;;;;5066692;28;25064;-74
2023/06/25 04:52:18;;;;;;;23.73;14.80;;;;;;;;;;5058625;28;25162;-75
2023/06/25 04:54:44;;;;;;;30.20;17.45;;;;;;;;;;5064076;28;25082;-73
2023/06/25 04:57:10;;;;;;;25.40;15.82;;;;;;;;;;5077455;28;25076;-73
2023/06/25 04:59:36;;;;;;;29.70;16.30;;;;;;;;;;5072738;28;25045;-75
2023/06/25 05:02:02;;;;;;;32.30;16.75;;;;;;;;;;5072322;28;25067;-72
2023/06/25 05:04:28;;;;;;;23.30;15.50;;;;;;;;;;5072469;28;25063;-74
2023/06/25 05:06:54;;;;;;;28.05;15.55;;;;;;;;;;5066733;28;25071;-72
2023/06/25 05:09:20;;;;;;;22.58;15.27;;;;;;;;;;5061296;28;25060;-72
2023/06/25 05:11:47;;;;;;;25.15;16.15;;;;;;;;;;5049525;28;25083;-72
2023/06/25 05:14:13;;;;;;;25.23;16.05;;;;;;;;;;5052270;28;25093;-73
2023/06/25 05:16:39;;;;;;;24.98;15.82;;;;;;;;;;5055690;28;25060;-72
2023/06/25 05:19:04;;;;;;;25.27;15.55;;;;;;;;;;5051061;28;25071;-72
2023/06/25 05:21:30;;;;;;;23.60;14.88;;;;;;;;;;5047409;28;25068;-72
2023/06/25 05:23:58;;;;;;;24.42;16.05;;;;;;;;;;5048264;28;25055;-71
2023/06/25 05:26:24;;;;;;;24.30;15.23;;;;;;;;;;5052718;28;25074;-76
2023/06/25 05:28:56;;;;;;;21.90;13.93;;;;;;;;;;5039168;28;26211;-65
2023/06/25 05:31:22;;;;;;;23.58;14.05;;;;;;;;;;5006396;28;25104;-64
2023/06/25 05:33:48;;;;;;;24.40;15.10;;;;;;;;;;5011743;28;25062;-66
2023/06/25 05:36:14;;;;;;;20.67;14.13;;;;;;;;;;5018605;28;25077;-64
2023/06/25 05:38:40;;;;;;;21.70;12.52;;;;;;;;;;5015423;28;25056;-63
2023/06/25 05:41:06;;;;;;;24.30;14.23;;;;;;;;;;5015712;28;25134;-65
2023/06/25 05:43:32;;;;;;;25.85;13.82;;;;;;;;;;5018911;28;25098;-65
2023/06/25 05:45:58;;;;;;;21.65;14.35;;;;;;;;;;5012162;28;25136;-66
2023/06/25 05:48:24;;;;;;;24.05;14.30;;;;;;;;;;5009061;28;25062;-64
2023/06/25 05:50:50;;;;;;;21.27;13.57;;;;;;;;;;5009830;28;25146;-66
2023/06/25 05:53:16;;;;;;;20.85;13.25;;;;;;;;;;5006742;28;25057;-64
2023/06/25 05:55:42;;;;;;;23.65;13.73;;;;;;;;;;5011824;28;25074;-67
2023/06/25 05:58:08;;;;;;;21.08;13.07;;;;;;;;;;5009341;28;25072;-66
2023/06/25 06:00:34;;;;;;;20.30;13.15;;;;;;;;;;5019138;28;25057;-64
2023/06/25 06:03:00;;;;;;;23.58;14.43;;;;;;;;;;5010773;28;25108;-65
2023/06/25 06:05:26;;;;;;;22.85;14.02;;;;;;;;;;5017966;28;25086;-66
2023/06/25 06:07:52;;;;;;;25.75;13.85;;;;;;;;;;5014584;28;25064;-66
2023/06/25 06:10:19;;;;;;;21.35;13.25;;;;;;;;;;5013260;28;25067;-64
2023/06/25 06:12:44;;;;;;;21.77;12.27;;;;;;;;;;5018673;28;25067;-66
2023/06/25 06:15:11;;;;;;;21.52;12.68;;;;;;;;;;5009913;28;25069;-65
2023/06/25 06:17:36;;;;;;;22.05;13.25;;;;;;;;;;5011818;28;25057;-65
2023/06/25 06:20:03;;;;;;;20.60;12.70;;;;;;;;;;5016558;28;25060;-66
2023/06/25 06:22:29;;;;;;;22.00;12.45;;;;;;;;;;5012939;28;25108;-65
2023/06/25 06:24:55;;;;;;;18.90;12.48;;;;;;;;;;5016788;28;25094;-65
2023/06/25 06:27:21;;;;;;;20.90;13.88;;;;;;;;;;5007462;28;25150;-65
2023/06/25 06:29:46;;;;;;;20.23;12.95;;;;;;;;;;5015906;28;25154;-65
2023/06/25 06:32:13;;;;;;;16.30;11.15;;;;;;;;;;5014359;28;25062;-64
2023/06/25 06:34:39;;;;;;;18.42;11.93;;;;;;;;;;5020703;28;25074;-63
2023/06/25 06:37:05;;;;;;;21.15;11.90;;;;;;;;;;5009140;28;25061;-67
2023/06/25 06:39:31;;;;;;;17.25;12.27;;;;;;;;;;5010109;28;25064;-64
2023/06/25 06:41:57;;;;;;;16.10;11.77;;;;;;;;;;5007539;28;25059;-63
2023/06/25 06:44:23;;;;;;;18.73;10.75;;;;;;;;;;4993039;28;25058;-63
2023/06/25 06:46:49;;;;;;;19.75;10.52;;;;;;;;;;5003543;28;25151;-64
2023/06/25 06:49:17;;;;;;;14.80;9.63;;;;;;;;;;5001710;28;25085;-65
2023/06/25 06:51:43;;;;;;;12.70;9.35;;;;;;;;;;5005638;28;25047;-64
2023/06/25 06:54:09;;;;;;;17.40;10.18;;;;;;;;;;4992462;28;25145;-64
2023/06/25 06:56:35;;;;;;;16.25;10.45;;;;;;;;;;5005638;28;25073;-65
2023/06/25 06:59:01;;;;;;;17.17;10.73;;;;;;;;;;5007580;28;25077;-64
2023/06/25 07:01:27;;;;;;;16.83;10.40;;;;;;;;;;5007854;28;25059;-65
2023/06/25 07:03:53;;;;;;;16.15;10.40;;;;;;;;;;5001126;28;25054;-65
2023/06/25 07:06:20;;;;;;;17.67;10.18;;;;;;;;;;5007962;28;25069;-69
2023/06/25 07:08:47;;;;;;;16.58;10.57;;;;;;;;;;4994579;28;25064;-66
2023/06/25 07:11:16;;;;;;;15.98;10.55;;;;;;;;;;5003756;28;25076;-65
2023/06/25 07:13:42;;;;;;;15.57;9.93;;;;;;;;;;4998489;28;25077;-66
2023/06/25 07:16:08;;;;;;;18.27;11.32;;;;;;;;;;5000461;28;25069;-66
2023/06/25 07:18:34;;;;;;;20.15;11.05;;;;;;;;;;4994423;28;25053;-66
2023/06/25 07:21:00;;;;;;;15.52;9.55;;;;;;;;;;4999633;28;25062;-63
2023/06/25 07:23:26;;;;;;;18.50;11.05;;;;;;;;;;4999580;28;25059;-65
2023/06/25 07:25:52;;;;;;;15.98;9.77;;;;;;;;;;5004330;28;25132;-63
2023/06/25 07:28:18;;;;;;;18.77;10.35;;;;;;;;;;4998341;28;25083;-65
2023/06/25 07:30:44;;;;;;;16.45;10.13;;;;;;;;;;5003696;28;25074;-64
2023/06/25 07:33:10;;;;;;;15.27;10.38;;;;;;;;;;5002847;28;25060;-67
2023/06/25 07:35:36;;;;;;;18.50;11.15;;;;;;;;;;5004464;28;25046;-64
2023/06/25 07:38:02;;;;;;;17.52;11.38;;;;;;;;;;5004005;28;25132;-65
2023/06/25 07:40:28;;;;;;;16.55;10.55;;;;;;;;;;4996966;28;25073;-64
2023/06/25 07:42:54;;;;;;;18.83;11.00;;;;;;;;;;4994781;28;25084;-64
2023/06/25 07:45:20;;;;;;;19.88;12.02;;;;;;;;;;4996003;28;25088;-64
2023/06/25 07:47:46;;;;;;;12.73;9.05;;;;;;;;;;5000503;28;25053;-65
2023/06/25 07:50:12;;;;;;;17.73;8.77;;;;;;;;;;5006304;28;25137;-65
2023/06/25 07:52:38;;;;;;;10.18;7.30;;;;;;;;;;5000930;28;25066;-64
2023/06/25 07:55:04;;;;;;;13.73;8.00;;;;;;;;;;5010027;28;25051;-68
2023/06/25 07:57:30;;;;;;;10.60;6.40;;;;;;;;;;5003479;28;25057;-65
2023/06/25 07:59:55;;;;;;;9.77;6.72;;;;;;;;;;5005814;28;25049;-66
2023/06/25 08:02:22;;;;;;;12.98;7.00;;;;;;;;;;5000652;28;25071;-66
2023/06/25 08:04:48;;;;;;;11.65;7.30;;;;;;;;;;5011553;28;25070;-65
2023/06/25 08:07:14;;;;;;;12.40;7.05;;;;;;;;;;5006587;28;25051;-65
2023/06/25 08:09:41;;;;;;;9.60;6.07;;;;;;;;;;5002985;28;25064;-65
2023/06/25 08:12:07;;;;;;;11.18;7.00;;;;;;;;;;4997513;28;25052;-65
2023/06/25 08:14:33;;;;;;;10.88;6.53;;;;;;;;;;4998382;28;25096;-65
2023/06/25 08:16:59;;;;;;;9.25;6.00;;;;;;;;;;4989534;28;25089;-64
2023/06/25 08:19:25;;;;;;;8.50;5.47;;;;;;;;;;4998704;28;25120;-64
2023/06/25 08:21:51;;;;;;;10.32;5.53;;;;;;;;;;4998911;28;25151;-65
2023/06/25 08:24:17;;;;;;;11.13;5.38;;;;;;;;;;4996649;28;25048;-66
2023/06/25 08:26:43;;;;;;;7.88;6.00;;;;;;;;;;4997898;28;25066;-64
2023/06/25 08:29:09;;;;;;;12.63;4.97;;;;;;;;;;4997233;28;25068;-64
2023/06/25 08:31:35;;;;;;;9.57;5.28;;;;;;;;;;5002544;28;25123;-64
2023/06/25 08:34:01;;;;;;;9.98;5.45;;;;;;;;;;4998626;28;25097;-63
2023/06/25 08:36:27;;;;;;;7.82;5.28;;;;;;;;;;5028462;28;25145;-65
2023/06/25 08:38:53;;;;;;;8.07;5.55;;;;;;;;;;4996262;28;25063;-63
2023/06/25 08:41:19;;;;;;;12.68;6.75;;;;;;;;;;4996789;28;25053;-64
2023/06/25 08:43:46;;;;;;;9.38;6.28;;;;;;;;;;5000138;28;25077;-64
2023/06/25 08:46:12;;;;;;;10.27;6.40;;;;;;;;;;4993602;28;25070;-62
2023/06/25 08:48:39;;;;;;;10.02;6.70;;;;;;;;;;4998658;28;25050;-62
2023/06/25 08:51:08;;;;;;;8.90;5.95;;;;;;;;;;4987816;28;25058;-63
2023/06/25 08:53:35;;;;;;;9.05;6.15;;;;;;;;;;4992620;28;25075;-66
2023/06/25 08:56:03;;;;;;;10.25;6.78;;;;;;;;;;4997728;28;25153;-64
2023/06/25 08:58:29;;;;;;;7.80;5.63;;;;;;;;;;4998813;28;25152;-64
2023/06/25 09:00:55;;;;;;;9.20;6.20;;;;;;;;;;4996910;28;25136;-65
2023/06/25 09:03:27;;;;;;;8.43;5.15;;;;;;;;;;4989770;28;25050;-62
2023/06/25 09:05:54;;;;;;;8.05;5.60;;;;;;;;;;5004018;28;25075;-63
2023/06/25 09:08:21;;;;;;;7.60;5.80;;;;;;;;;;4999365;28;25074;-64
2023/06/25 09:10:51;;;;;;;10.20;5.43;;;;;;;;;;5001096;28;25161;-64
2023/06/25 09:13:27;;;;;;;9.85;6.28;;;;;;;;;;4990688;28;25072;-64
2023/06/25 09:15:54;;;;;;;9.45;4.93;;;;;;;;;;4999019;28;25093;-64
2023/06/25 09:18:21;;;;;;;9.45;4.97;;;;;;;;;;4999324;28;25072;-64
2023/06/25 09:20:48;;;;;;;7.43;5.35;;;;;;;;;;5000927;28;25101;-63
2023/06/25 09:23:18;;;;;;;9.38;6.07;;;;;;;;;;4996307;28;25090;-63
2023/06/25 09:25:45;;;;;;;8.23;5.90;;;;;;;;;;4999404;28;25095;-65
2023/06/25 09:28:10;;;;;;;7.70;5.18;;;;;;;;;;4997549;28;25189;-65
2023/06/25 09:30:38;;;;;;;6.20;4.82;;;;;;;;;;5004130;28;25061;-66
2023/06/25 09:33:05;;;;;;;8.20;4.57;;;;;;;;;;5003217;28;25117;-66
2023/06/25 09:35:31;;;;;;;9.60;4.25;;;;;;;;;;5003305;28;25083;-62
2023/06/25 09:37:57;;;;;;;8.30;4.95;;;;;;;;;;5002505;28;25080;-63
2023/06/25 09:40:23;;;;;;;6.03;4.88;;;;;;;;;;5003862;28;25074;-63
2023/06/25 09:42:53;;;;;;;6.22;4.25;;;;;;;;;;4997826;28;25053;-64
2023/06/25 09:45:20;;;;;;;7.22;4.38;;;;;;;;;;4997859;28;25054;-65
2023/06/25 09:47:47;;;;;;;7.20;5.65;;;;;;;;;;5000392;28;25090;-64
2023/06/25 09:50:17;;;;;;;6.05;4.43;;;;;;;;;;4997818;28;25046;-64
2023/06/25 09:52:46;;;;;;;8.63;4.90;;;;;;;;;;4991132;28;25107;-62
2023/06/25 09:55:12;;;;;;;5.82;4.03;;;;;;;;;;4996122;28;25065;-63
2023/06/25 09:57:38;;;;;;;4.75;3.20;;;;;;;;;;4992982;28;25068;-63
2023/06/25 10:00:05;;;;;;;6.13;4.13;;;;;;;;;;4998881;28;25067;-64
2023/06/25 10:02:31;;;;;;;6.28;4.68;;;;;;;;;;4995985;28;25072;-63
2023/06/25 10:04:57;;;;;;;6.03;4.40;;;;;;;;;;4998079;28;25081;-64
2023/06/25 10:07:24;;;;;;;6.63;3.63;;;;;;;;;;4995861;28;25067;-64
2023/06/25 10:09:53;;;;;;;8.20;3.67;;;;;;;;;;4994054;28;25066;-64
2023/06/25 10:12:20;;;;;;;5.47;4.00;;;;;;;;;;5002015;28;25137;-63
2023/06/25 10:14:47;;;;;;;5.47;3.83;;;;;;;;;;4992741;28;25091;-65
2023/06/25 10:17:13;;;;;;;4.32;3.70;;;;;;;;;;5003067;28;25080;-62
2023/06/25 10:19:39;;;;;;;4.65;3.70;;;;;;;;;;5005604;28;25081;-64
2023/06/25 10:22:07;;;;;;;6.40;4.35;;;;;;;;;;4999783;28;25094;-64
2023/06/25 10:25:02;;;;;;;5.47;3.50;;;;;;;;;;5003461;28;25060;-63
2023/06/25 10:27:29;;;;;;;5.32;4.25;;;;;;;;;;4992587;28;25071;-63
2023/06/25 10:29:57;;;;;;;6.22;4.22;;;;;;;;;;5007095;28;25062;-63
2023/06/25 10:32:23;;;;;;;3.58;3.13;;;;;;;;;;5002370;28;25080;-62
2023/06/25 10:34:53;;;;;;;4.82;4.10;;;;;;;;;;5000532;28;25103;-64
2023/06/25 10:37:19;;;;;;;4.93;3.67;;;;;;;;;;4998804;28;25060;-62
2023/06/25 10:39:45;;;;;;;4.90;3.60;;;;;;;;;;4998426;28;25043;-64
2023/06/25 10:42:13;;;;;;;4.28;3.67;;;;;;;;;;4999980;28;25160;-61
2023/06/25 10:44:40;;;;;;;5.25;3.92;;;;;;;;;;5003817;28;25048;-63
2023/06/25 10:47:10;;;;;;;6.88;4.05;;;;;;;;;;4997742;28;25143;-63
2023/06/25 10:49:36;;;;;;;7.38;3.97;;;;;;;;;;5006491;28;25108;-62
2023/06/25 10:52:03;;;;;;;8.57;4.18;;;;;;;;;;4997932;28;25042;-64
2023/06/25 10:54:30;;;;;;;4.10;3.67;;;;;;;;;;4996409;28;25138;-63
2023/06/25 10:57:09;;;;;;;8.43;4.03;;;;;;;;;;5000824;28;25084;-65
2023/06/25 10:59:36;;;;;;;7.70;3.88;;;;;;;;;;4997389;28;25129;-62
2023/06/25 11:02:09;;;;;;;5.03;3.60;;;;;;;;;;4997432;28;25147;-62
2023/06/25 11:04:35;;;;;;;5.63;3.60;;;;;;;;;;5003268;28;25101;-62
2023/06/25 11:07:01;;;;;;;5.70;3.75;;;;;;;;;;5001238;28;25068;-63
2023/06/25 11:09:28;;;;;;;4.13;3.50;;;;;;;;;;5003871;28;25080;-63
2023/06/25 11:11:54;;;;;;;4.25;3.58;;;;;;;;;;4999456;28;25084;-63
2023/06/25 11:14:20;;;;;;;3.88;3.30;;;;;;;;;;5002841;28;25146;-63
2023/06/25 11:16:46;;;;;;;7.63;3.83;;;;;;;;;;5002176;28;25167;-64
2023/06/25 11:19:12;;;;;;;6.82;3.70;;;;;;;;;;5000089;28;25052;-64
2023/06/25 11:21:38;;;;;;;5.82;4.18;;;;;;;;;;4994542;28;25098;-63
2023/06/25 11:24:10;;;;;;;4.75;3.50;;;;;;;;;;4999838;28;25105;-64
2023/06/25 11:26:43;;;;;;;5.22;4.15;;;;;;;;;;4994965;28;25089;-63
2023/06/25 11:29:09;;;;;;;9.13;3.78;;;;;;;;;;4993368;28;25084;-63
2023/06/25 11:31:42;;;;;;;5.07;3.70;;;;;;;;;;5000958;28;25078;-63
2023/06/25 11:34:10;;;;;;;4.95;3.72;;;;;;;;;;5004352;28;25134;-65
2023/06/25 11:36:37;;;;;;;4.65;3.75;;;;;;;;;;4994829;28;25061;-63
2023/06/25 11:39:07;;;;;;;6.35;3.65;;;;;;;;;;4998961;28;25113;-64
2023/06/25 11:41:33;;;;;;;7.07;3.83;;;;;;;;;;4997679;28;25082;-63
2023/06/25 11:43:59;;;;;;;4.18;3.65;;;;;;;;;;4993185;28;25061;-62
2023/06/25 11:46:25;;;;;;;4.38;3.70;;;;;;;;;;4999371;28;25137;-62
2023/06/25 11:48:51;;;;;;;4.85;3.75;;;;;;;;;;4997103;28;25084;-62
2023/06/25 11:51:17;;;;;;;4.72;3.75;;;;;;;;;;4997874;28;25086;-63
2023/06/25 11:53:43;;;;;;;4.68;3.50;;;;;;;;;;5000496;28;25056;-63
2023/06/25 11:56:09;;;;;;;7.25;4.32;;;;;;;;;;4998748;28;25087;-63
2023/06/25 11:58:35;;;;;;;4.60;3.72;;;;;;;;;;5001802;28;25060;-63
2023/06/25 12:01:01;;;;;;;6.90;3.60;;;;;;;;;;5005348;28;25071;-63
2023/06/25 12:03:27;;;;;;;4.00;3.60;;;;;;;;;;4993773;28;25087;-63
2023/06/25 12:05:53;;;;;;;4.82;3.67;;;;;;;;;;4995410;28;25043;-63
2023/06/25 12:08:19;;;;;;;4.88;3.58;;;;;;;;;;4994974;28;25061;-62
2023/06/25 12:10:45;;;;;;;5.95;3.67;;;;;;;;;;4994716;28;25095;-64
2023/06/25 12:13:11;;;;;;;9.35;4.03;;;;;;;;;;5000696;28;25063;-62
2023/06/25 12:15:37;;;;;;;4.18;3.45;;;;;;;;;;4987969;28;25065;-63
2023/06/25 12:18:03;;;;;;;6.78;3.50;;;;;;;;;;4988689;28;25077;-63
2023/06/25 12:20:29;;;;;;;5.05;3.72;;;;;;;;;;4996825;28;25076;-64
2023/06/25 12:22:55;;;;;;;8.38;4.40;;;;;;;;;;5018116;28;25060;-63
2023/06/25 12:25:21;;;;;;;5.40;3.72;;;;;;;;;;4995823;28;25051;-63
2023/06/25 12:27:47;;;;;;;6.20;4.15;;;;;;;;;;4994149;28;25078;-63
2023/06/25 12:30:13;;;;;;;6.30;4.05;;;;;;;;;;5004017;28;25083;-63
2023/06/25 12:32:39;;;;;;;4.20;3.70;;;;;;;;;;4995476;28;25063;-63
2023/06/25 12:35:06;;;;;;;3.72;3.40;;;;;;;;;;5003684;28;25086;-64
2023/06/25 12:37:32;;;;;;;6.85;4.15;;;;;;;;;;4992027;28;25122;-64
2023/06/25 12:39:58;;;;;;;5.55;4.18;;;;;;;;;;4994389;28;25071;-62
2023/06/25 12:42:24;;;;;;;4.45;3.75;;;;;;;;;;5001031;28;25131;-62
2023/06/25 12:44:50;;;;;;;4.88;4.15;;;;;;;;;;4999093;28;25151;-65
2023/06/25 12:47:16;;;;;;;5.22;3.75;;;;;;;;;;4993115;28;25102;-65
2023/06/25 12:49:42;;;;;;;4.25;3.60;;;;;;;;;;5002841;28;25055;-62
2023/06/25 12:52:08;;;;;;;4.50;4.05;;;;;;;;;;4984848;28;25060;-64
2023/06/25 12:54:34;;;;;;;4.53;3.50;;;;;;;;;;4988350;28;25067;-64
2023/06/25 12:57:00;;;;;;;7.75;4.13;;;;;;;;;;4991000;28;25049;-63
2023/06/25 12:59:26;;;;;;;4.93;3.88;;;;;;;;;;4995367;28;25045;-62
2023/06/25 13:01:56;;;;;;;6.72;3.97;;;;;;;;;;4999009;28;25080;-63
2023/06/25 13:04:22;;;;;;;5.50;3.90;;;;;;;;;;4999661;28;25062;-63
2023/06/25 13:06:48;;;;;;;4.47;4.03;;;;;;;;;;4993061;28;25076;-63
2023/06/25 13:09:14;;;;;;;6.13;3.83;;;;;;;;;;5001577;28;25066;-64
2023/06/25 13:11:40;;;;;;;6.30;4.20;;;;;;;;;;4997549;28;25150;-62
2023/06/25 13:14:06;;;;;;;7.22;4.05;;;;;;;;;;4995211;28;25069;-63
2023/06/25 13:16:32;;;;;;;6.13;4.93;;;;;;;;;;4992741;28;25076;-64
2023/06/25 13:18:58;;;;;;;6.03;4.43;;;;;;;;;;4994441;28;25056;-64
2023/06/25 13:21:24;;;;;;;5.13;3.47;;;;;;;;;;4993187;28;25061;-63
2023/06/25 13:23:50;;;;;;;6.72;3.75;;;;;;;;;;4993941;28;25129;-64
2023/06/25 13:26:16;;;;;;;5.32;3.85;;;;;;;;;;5000322;28;25084;-64
2023/06/25 13:28:42;;;;;;;4.65;3.45;;;;;;;;;;4986634;28;25107;-63
2023/06/25 13:31:08;;;;;;;4.72;3.78;;;;;;;;;;4995008;28;25099;-63
2023/06/25 13:33:34;;;;;;;6.70;4.72;;;;;;;;;;5000786;28;25078;-63
2023/06/25 13:36:00;;;;;;;4.65;4.15;;;;;;;;;;4994820;28;25089;-63
2023/06/25 13:38:26;;;;;;;7.78;4.45;;;;;;;;;;4990249;28;25079;-63
2023/06/25 13:40:52;;;;;;;4.90;4.03;;;;;;;;;;4984761;28;25069;-64
2023/06/25 13:43:17;;;;;;;5.90;3.92;;;;;;;;;;4993207;28;25074;-63
2023/06/25 13:45:43;;;;;;;5.63;4.15;;;;;;;;;;4989881;28;25083;-62
2023/06/25 13:48:09;;;;;;;7.35;4.28;;;;;;;;;;4987093;28;25092;-64
2023/06/25 13:50:35;;;;;;;7.57;4.10;;;;;;;;;;4993267;28;25068;-64
2023/06/25 13:53:01;;;;;;;5.40;3.40;;;;;;;;;;4994470;28;25062;-67
2023/06/25 13:55:28;;;;;;;4.45;3.85;;;;;;;;;;4995648;28;25060;-63
2023/06/25 13:57:54;;;;;;;4.70;4.13;;;;;;;;;;4996957;28;25056;-62
2023/06/25 14:00:21;;;;;;;7.85;3.80;;;;;;;;;;4993206;28;25074;-63
2023/06/25 14:02:47;;;;;;;7.40;3.97;;;;;;;;;;5002526;28;25054;-63
2023/06/25 14:05:13;;;;;;;5.45;3.85;;;;;;;;;;5001255;28;25068;-63
2023/06/25 14:07:39;;;;;;;4.25;3.53;;;;;;;;;;4994262;28;25138;-62
2023/06/25 14:10:05;;;;;;;3.65;3.28;;;;;;;;;;4993630;28;25052;-63
2023/06/25 14:12:31;;;;;;;5.07;3.97;;;;;;;;;;5005089;28;25065;-65
2023/06/25 14:14:57;;;;;;;6.13;4.22;;;;;;;;;;4999806;28;25046;-64
2023/06/25 14:17:23;;;;;;;4.07;3.67;;;;;;;;;;4998783;28;25100;-63
2023/06/25 14:19:49;;;;;;;6.03;3.78;;;;;;;;;;4995735;28;25144;-63
2023/06/25 14:22:15;;;;;;;5.22;3.60;;;;;;;;;;4994956;28;25059;-63
2023/06/25 14:24:41;;;;;;;4.65;3.80;;;;;;;;;;5000828;28;25066;-63